Time;durP1;ratioP1;P1;durP2;ratioP2;P2;SDS_P1;SDS_P2;PMS_P1;PMS_P2;Temp;Humidity;BMP_temperature;BMP_pressure;BME280_temperature;BME280_humidity;BME280_pressure;Samples;Min_cycle;Max_cycle;Signal;HPM_P1;HPM_P2
2021/12/15 00:01:05;;;;;;;57.95;21.52;;;9.60;99.90;;;;;;5056673;28;20546;-48
2021/12/15 00:03:31;;;;;;;56.10;22.50;;;9.60;99.90;;;;;;5062243;28;20132;-51
2021/12/15 00:05:59;;;;;;;50.47;22.05;;;9.60;99.90;;;;;;5059727;28;20535;-48
2021/12/15 00:08:26;;;;;;;49.30;21.63;;;9.50;99.90;;;;;;5041004;28;20052;-51
2021/12/15 00:10:52;;;;;;;49.25;21.45;;;9.60;99.90;;;;;;5036648;28;20545;-47
2021/12/15 00:13:20;;;;;;;63.15;23.83;;;9.60;99.90;;;;;;5055165;28;20434;-47
2021/12/15 00:15:47;;;;;;;48.65;21.38;;;9.50;99.90;;;;;;5064388;28;20041;-47
2021/12/15 00:18:14;;;;;;;57.78;22.10;;;9.60;99.90;;;;;;5049509;28;20128;-51
2021/12/15 00:20:40;;;;;;;48.28;21.85;;;9.50;99.90;;;;;;5048835;28;20048;-47
2021/12/15 00:23:06;;;;;;;60.83;24.03;;;9.60;99.90;;;;;;5061362;28;20039;-47
2021/12/15 00:25:35;;;;;;;55.05;23.38;;;9.60;99.90;;;;;;5033015;28;20280;-47
2021/12/15 00:28:01;;;;;;;45.65;21.17;;;9.60;99.90;;;;;;5082541;28;20104;-49
2021/12/15 00:30:28;;;;;;;47.97;21.13;;;9.60;99.90;;;;;;5065543;28;20117;-48
2021/12/15 00:32:55;;;;;;;52.80;20.80;;;9.50;99.90;;;;;;5049042;28;20083;-47
2021/12/15 00:35:21;;;;;;;50.40;22.47;;;9.50;99.90;;;;;;5050337;28;20307;-49
2021/12/15 00:37:48;;;;;;;58.80;22.25;;;9.60;99.90;;;;;;5048752;28;20306;-48
2021/12/15 00:40:18;;;;;;;45.03;20.73;;;9.60;99.90;;;;;;5049888;28;20161;-50
2021/12/15 00:42:46;;;;;;;49.63;21.00;;;9.60;99.90;;;;;;5089315;28;20040;-48
2021/12/15 00:45:13;;;;;;;49.08;20.77;;;9.60;99.90;;;;;;5058512;28;20037;-49
2021/12/15 00:47:39;;;;;;;57.60;23.25;;;9.60;99.90;;;;;;5048916;28;20068;-48
2021/12/15 00:50:07;;;;;;;51.38;21.15;;;9.60;99.90;;;;;;5052276;28;20150;-48
2021/12/15 00:52:35;;;;;;;47.28;21.98;;;9.60;99.90;;;;;;5053703;28;20040;-47
2021/12/15 00:55:03;;;;;;;57.47;22.05;;;9.60;99.90;;;;;;5047699;28;20098;-47
2021/12/15 00:57:29;;;;;;;42.97;19.65;;;9.60;99.90;;;;;;5047247;28;20037;-51
2021/12/15 00:59:55;;;;;;;49.25;20.67;;;9.60;99.90;;;;;;5049140;28;20045;-48
2021/12/15 01:02:21;;;;;;;55.78;20.98;;;9.60;99.90;;;;;;5031304;28;20067;-48
2021/12/15 01:04:47;;;;;;;49.53;20.75;;;9.60;99.90;;;;;;5029800;28;20090;-48
2021/12/15 01:07:13;;;;;;;47.45;21.33;;;9.60;99.90;;;;;;5049299;28;20116;-47
2021/12/15 01:09:46;;;;;;;45.45;20.98;;;9.60;99.90;;;;;;5029947;28;20045;-49
2021/12/15 01:20:37;;;;;;;45.75;20.02;;;9.60;99.90;;;;;;5049468;28;20048;-48
2021/12/15 01:23:07;;;;;;;50.42;20.00;;;9.60;99.90;;;;;;5058569;28;20039;-49
2021/12/15 01:25:44;;;;;;;44.47;20.58;;;9.60;99.90;;;;;;5052489;28;20052;-48
2021/12/15 01:28:10;;;;;;;46.45;20.13;;;9.60;99.90;;;;;;5032480;28;20124;-48
2021/12/15 01:30:41;;;;;;;47.00;20.63;;;9.60;99.90;;;;;;5060931;28;20505;-47
2021/12/15 01:33:07;;;;;;;46.40;19.50;;;9.60;99.90;;;;;;5047759;28;20047;-48
2021/12/15 01:35:35;;;;;;;45.08;20.17;;;9.60;99.90;;;;;;5047650;28;20043;-47
2021/12/15 01:38:01;;;;;;;44.40;20.52;;;9.60;99.90;;;;;;5049095;28;20049;-52
2021/12/15 01:40:36;;;;;;;47.83;21.40;;;9.60;99.90;;;;;;5080925;28;20069;-48
2021/12/15 01:43:17;;;;;;;48.40;21.73;;;9.60;99.90;;;;;;5043613;28;20051;-48
2021/12/15 01:48:31;;;;;;;52.63;21.65;;;9.60;99.90;;;;;;5067710;28;20120;-47
2021/12/15 01:50:57;;;;;;;53.30;22.65;;;9.60;99.90;;;;;;5067570;28;20052;-49
2021/12/15 01:53:23;;;;;;;49.05;21.73;;;9.70;99.90;;;;;;5063382;28;20136;-50
2021/12/15 01:55:49;;;;;;;49.35;21.13;;;9.70;99.90;;;;;;5068785;28;20102;-49
2021/12/15 01:58:15;;;;;;;45.90;22.10;;;9.70;99.90;;;;;;5067585;28;20110;-48
2021/12/15 02:00:48;;;;;;;50.45;21.23;;;9.70;99.90;;;;;;5050761;28;20158;-47
2021/12/15 02:03:16;;;;;;;49.30;22.77;;;9.70;99.90;;;;;;5063735;28;20430;-49
2021/12/15 02:05:42;;;;;;;;;;;9.70;99.90;;;;;;5058911;28;20059;-48
2021/12/15 02:08:08;;;;;;;45.42;20.65;;;9.60;99.90;;;;;;5071358;28;19958;-47
2021/12/15 02:10:38;;;;;;;49.17;22.52;;;9.60;99.90;;;;;;5054152;28;20070;-48
2021/12/15 02:13:08;;;;;;;51.83;22.45;;;9.70;99.90;;;;;;5061334;28;20044;-49
2021/12/15 02:15:39;;;;;;;50.15;22.50;;;9.70;99.90;;;;;;5069134;28;20430;-47
2021/12/15 02:18:08;;;;;;;59.70;23.50;;;9.70;99.90;;;;;;5051371;28;20044;-47
2021/12/15 02:20:40;;;;;;;47.13;22.50;;;9.70;99.90;;;;;;5084858;28;20131;-48
2021/12/15 02:23:10;;;;;;;50.00;24.40;;;9.70;99.90;;;;;;5085194;28;20047;-49
2021/12/15 02:25:38;;;;;;;52.28;22.42;;;9.70;99.90;;;;;;5051220;28;20399;-48
2021/12/15 02:28:06;;;;;;;53.63;23.00;;;9.70;99.90;;;;;;5054276;28;20076;-51
2021/12/15 02:33:41;;;;;;;49.72;22.25;;;9.70;99.90;;;;;;5051189;28;20037;-47
2021/12/15 02:38:42;;;;;;;47.90;21.35;;;9.70;99.90;;;;;;5071084;28;20059;-47
2021/12/15 02:41:20;;;;;;;49.92;22.33;;;9.70;99.90;;;;;;5072213;28;20032;-47
2021/12/15 02:43:53;;;;;;;48.70;22.85;;;9.70;99.90;;;;;;5084463;28;20052;-48
2021/12/15 02:46:20;;;;;;;57.38;23.13;;;9.70;99.90;;;;;;5053746;28;20411;-51
2021/12/15 02:48:46;;;;;;;58.28;23.38;;;9.70;99.90;;;;;;5049561;28;20049;-47
2021/12/15 02:51:13;;;;;;;49.90;21.65;;;9.70;99.90;;;;;;5069348;28;20346;-48
2021/12/15 02:53:39;;;;;;;50.30;23.17;;;9.70;99.90;;;;;;5059273;28;20044;-48
2021/12/15 02:56:07;;;;;;;52.75;22.77;;;9.70;99.90;;;;;;5051328;28;20378;-48
2021/12/15 02:58:36;;;;;;;54.75;22.48;;;9.70;99.90;;;;;;5070551;28;20063;-49
2021/12/15 03:01:17;;;;;;;53.72;23.58;;;9.70;99.90;;;;;;5069904;28;20257;-49
2021/12/15 03:06:22;;;;;;;48.38;23.20;;;9.70;99.90;;;;;;5068530;28;20154;-49
2021/12/15 03:09:07;;;;;;;48.67;21.38;;;9.70;99.90;;;;;;5060449;28;20363;-49
2021/12/15 03:17:03;;;;;;;53.72;23.23;;;9.70;99.90;;;;;;5066984;28;20123;-48
2021/12/15 03:19:29;;;;;;;54.47;25.15;;;9.70;99.90;;;;;;5033873;28;20049;-49
2021/12/15 03:21:55;;;;;;;54.85;23.65;;;9.70;99.90;;;;;;5052621;28;20053;-49
2021/12/15 03:24:24;;;;;;;51.72;24.13;;;9.70;99.90;;;;;;5057056;28;20045;-50
2021/12/15 03:27:00;;;;;;;53.70;22.58;;;9.70;99.90;;;;;;5054199;28;20079;-47
2021/12/15 03:37:33;;;;;;;55.08;26.38;;;9.70;99.90;;;;;;5059397;28;20048;-49
2021/12/15 03:40:01;;;;;;;51.25;25.10;;;9.70;99.90;;;;;;5054292;28;20047;-47
2021/12/15 03:42:32;;;;;;;57.63;24.35;;;9.70;99.90;;;;;;5069058;28;20526;-48
2021/12/15 03:44:58;;;;;;;64.95;25.83;;;9.70;99.90;;;;;;5069326;28;20048;-47
2021/12/15 03:47:29;;;;;;;49.47;24.60;;;9.70;99.90;;;;;;5059027;28;20037;-48
2021/12/15 03:49:58;;;;;;;58.53;25.52;;;9.70;99.90;;;;;;5069020;28;20475;-48
2021/12/15 03:52:25;;;;;;;53.30;25.02;;;9.70;99.90;;;;;;5070254;28;20055;-49
2021/12/15 03:54:52;;;;;;;54.33;26.40;;;9.70;99.90;;;;;;5057566;28;20048;-51
2021/12/15 03:57:20;;;;;;;51.95;23.88;;;9.70;99.90;;;;;;5069346;28;20455;-48
2021/12/15 03:59:46;;;;;;;55.22;24.63;;;9.70;99.90;;;;;;5052691;28;20501;-48
2021/12/15 04:02:16;;;;;;;55.35;25.42;;;9.70;99.90;;;;;;5070088;28;20064;-48
2021/12/15 04:04:44;;;;;;;49.72;25.38;;;9.70;99.90;;;;;;5068650;28;20052;-49
2021/12/15 04:07:11;;;;;;;53.63;26.35;;;9.70;99.90;;;;;;5057184;28;20120;-48
2021/12/15 04:09:38;;;;;;;59.70;27.45;;;9.70;99.90;;;;;;5057101;28;20132;-48
2021/12/15 04:12:04;;;;;;;54.43;26.43;;;9.70;99.90;;;;;;5056055;28;20052;-48
2021/12/15 04:14:41;;;;;;;62.90;27.80;;;9.70;99.90;;;;;;5069048;28;20048;-49
2021/12/15 04:17:17;;;;;;;57.88;25.25;;;9.70;99.90;;;;;;5051969;28;20053;-47
2021/12/15 04:19:43;;;;;;;55.45;25.65;;;9.70;99.90;;;;;;5061797;28;20080;-48
2021/12/15 04:22:10;;;;;;;52.35;25.48;;;9.70;99.90;;;;;;5064648;28;20406;-48
2021/12/15 04:24:36;;;;;;;55.28;25.55;;;9.70;99.90;;;;;;5066298;28;20120;-47
2021/12/15 04:27:02;;;;;;;54.55;25.63;;;9.70;99.90;;;;;;5068845;28;20113;-48
2021/12/15 04:29:29;;;;;;;57.63;24.45;;;9.70;99.90;;;;;;5057476;28;20143;-47
2021/12/15 04:32:20;;;;;;;55.83;25.75;;;9.70;99.90;;;;;;5054822;28;20076;-47
2021/12/15 04:34:46;;;;;;;57.10;24.60;;;9.70;99.90;;;;;;5069569;28;20473;-47
2021/12/15 04:37:12;;;;;;;56.95;25.75;;;9.70;99.90;;;;;;5061972;28;20048;-48
2021/12/15 04:39:38;;;;;;;55.20;25.00;;;9.80;99.90;;;;;;5063906;28;20055;-47
2021/12/15 04:42:05;;;;;;;52.63;25.95;;;9.70;99.90;;;;;;5069852;28;20048;-49
2021/12/15 04:44:33;;;;;;;55.00;24.75;;;9.70;99.90;;;;;;5066781;28;20158;-49
2021/12/15 04:47:08;;;;;;;57.30;26.02;;;9.70;99.90;;;;;;5048755;28;20094;-48
2021/12/15 04:49:41;;;;;;;47.85;23.63;;;9.70;99.90;;;;;;5052137;28;20053;-48
2021/12/15 04:52:08;;;;;;;53.80;23.08;;;9.70;99.90;;;;;;5051242;28;20802;-48
2021/12/15 04:54:34;;;;;;;51.78;24.17;;;9.70;99.90;;;;;;5069342;28;20189;-48
2021/12/15 04:57:01;;;;;;;54.70;25.27;;;9.80;99.90;;;;;;5045819;28;20069;-49
2021/12/15 04:59:29;;;;;;;49.03;23.90;;;9.80;99.90;;;;;;5069688;28;20080;-48
2021/12/15 05:01:54;;;;;;;;;;;9.70;99.90;;;;;;5059507;28;20033;-48
2021/12/15 05:04:21;;;;;;;48.67;22.77;;;9.70;99.90;;;;;;5034323;28;20370;-47
2021/12/15 05:06:47;;;;;;;47.17;23.65;;;9.70;99.90;;;;;;5066998;28;20276;-48
2021/12/15 05:09:14;;;;;;;51.92;23.60;;;9.70;99.90;;;;;;5064958;28;20558;-48
2021/12/15 05:11:40;;;;;;;46.20;23.70;;;9.70;99.90;;;;;;5049390;28;20422;-50
2021/12/15 05:14:07;;;;;;;50.07;23.37;;;9.70;99.90;;;;;;5066485;28;20355;-50
2021/12/15 05:16:34;;;;;;;48.70;22.95;;;9.70;99.90;;;;;;5064660;28;20032;-49
2021/12/15 05:19:00;;;;;;;48.70;22.98;;;9.70;99.90;;;;;;5066905;28;20047;-48
2021/12/15 05:21:28;;;;;;;51.92;24.65;;;9.70;99.90;;;;;;5069083;28;20045;-48
2021/12/15 05:23:58;;;;;;;53.67;23.83;;;9.70;99.90;;;;;;5015640;28;20148;-49
2021/12/15 05:26:24;;;;;;;51.88;24.10;;;9.70;99.90;;;;;;5047845;28;20037;-49
2021/12/15 05:28:51;;;;;;;51.88;23.67;;;9.70;99.90;;;;;;5049326;28;20158;-50
2021/12/15 05:31:18;;;;;;;46.30;23.48;;;9.70;99.90;;;;;;5047634;28;20055;-47
2021/12/15 05:33:44;;;;;;;56.78;24.00;;;9.70;99.90;;;;;;5048963;28;20045;-47
2021/12/15 05:36:10;;;;;;;55.03;23.83;;;9.70;99.90;;;;;;5047848;28;20088;-47
2021/12/15 05:38:36;;;;;;;56.45;23.85;;;9.70;99.90;;;;;;5054337;28;20592;-48
2021/12/15 05:41:02;;;;;;;56.33;22.70;;;9.70;99.90;;;;;;5070690;28;20040;-52
2021/12/15 05:43:28;;;;;;;52.58;24.45;;;9.70;99.90;;;;;;5051598;28;20071;-48
2021/12/15 05:45:54;;;;;;;53.03;24.33;;;9.70;99.90;;;;;;5051663;28;20056;-47
2021/12/15 05:48:21;;;;;;;61.03;24.33;;;9.70;99.90;;;;;;5053042;28;20095;-48
2021/12/15 05:50:50;;;;;;;57.75;24.67;;;9.70;99.90;;;;;;5053360;28;20199;-49
2021/12/15 05:53:17;;;;;;;55.47;22.80;;;9.70;99.90;;;;;;5052914;28;20040;-47
2021/12/15 05:55:44;;;;;;;54.42;24.48;;;9.70;99.90;;;;;;5051600;28;20114;-50
2021/12/15 05:58:11;;;;;;;52.90;23.55;;;9.60;99.90;;;;;;5052641;28;20053;-49
2021/12/15 06:00:40;;;;;;;62.70;24.90;;;9.70;99.90;;;;;;5051422;28;20037;-49
2021/12/15 06:03:06;;;;;;;50.03;23.83;;;9.70;99.90;;;;;;5052358;28;20063;-48
2021/12/15 06:05:34;;;;;;;57.50;25.30;;;9.60;99.90;;;;;;5054989;28;20036;-50
2021/12/15 06:07:59;;;;;;;;;;;9.70;99.90;;;;;;5052073;28;20048;-51
2021/12/15 06:10:29;;;;;;;50.60;23.50;;;9.60;99.90;;;;;;5084425;28;19923;-47
2021/12/15 06:12:56;;;;;;;51.80;24.13;;;9.60;99.90;;;;;;5061230;28;20112;-47
2021/12/15 06:15:24;;;;;;;;;;;9.70;99.90;;;;;;5071422;28;20044;-48
2021/12/15 06:17:56;;;;;;;50.72;22.60;;;9.60;99.90;;;;;;5045752;28;19940;-47
2021/12/15 06:20:22;;;;;;;56.88;23.33;;;9.60;99.90;;;;;;5068591;28;20390;-48
2021/12/15 06:22:48;;;;;;;45.83;23.38;;;9.70;99.90;;;;;;5070285;28;20064;-47
2021/12/15 06:25:14;;;;;;;51.90;24.25;;;9.70;99.90;;;;;;5070473;28;20037;-48
2021/12/15 06:27:41;;;;;;;59.58;23.50;;;9.70;99.90;;;;;;5062204;28;20203;-52
2021/12/15 06:30:09;;;;;;;47.95;23.58;;;9.70;99.90;;;;;;5050912;28;20040;-50
2021/12/15 06:32:35;;;;;;;50.15;23.02;;;9.70;99.90;;;;;;5054982;28;20124;-48
2021/12/15 06:35:01;;;;;;;55.53;23.15;;;9.70;99.90;;;;;;5049904;28;20107;-48
2021/12/15 06:37:27;;;;;;;54.03;22.85;;;9.70;99.90;;;;;;5043320;28;20051;-49
2021/12/15 06:39:53;;;;;;;55.75;23.45;;;9.70;99.90;;;;;;5053444;28;20041;-49
2021/12/15 06:42:19;;;;;;;51.30;23.92;;;9.70;99.90;;;;;;5083109;28;20185;-52
2021/12/15 06:44:47;;;;;;;51.25;21.98;;;9.70;99.90;;;;;;5049618;28;20124;-48
2021/12/15 07:00:33;;;;;;;50.85;22.40;;;9.70;99.90;;;;;;5063981;28;20075;-48
2021/12/15 07:03:00;;;;;;;53.53;22.73;;;9.70;99.90;;;;;;5067186;28;20041;-49
2021/12/15 07:05:27;;;;;;;48.78;22.80;;;9.70;99.90;;;;;;5069654;28;20045;-49
2021/12/15 07:07:54;;;;;;;57.17;23.27;;;9.70;99.90;;;;;;5050688;28;20052;-51
2021/12/15 07:10:24;;;;;;;48.10;23.42;;;9.70;99.90;;;;;;5084453;28;20091;-48
2021/12/15 07:12:51;;;;;;;57.45;23.73;;;9.70;99.90;;;;;;5052139;28;20140;-48
2021/12/15 07:15:17;;;;;;;;;;;9.70;99.90;;;;;;5084346;28;20124;-48
2021/12/15 07:17:47;;;;;;;49.85;21.75;;;9.70;99.90;;;;;;5052215;28;20319;-48
2021/12/15 07:20:32;;;;;;;47.72;21.02;;;9.70;99.90;;;;;;5037141;28;20107;-48
2021/12/15 07:23:12;;;;;;;47.45;22.45;;;9.70;99.90;;;;;;5057497;28;20037;-48
2021/12/15 07:25:40;;;;;;;53.97;21.15;;;9.70;99.90;;;;;;5069022;28;20223;-48
2021/12/15 07:28:07;;;;;;;47.13;21.25;;;9.80;99.90;;;;;;5065650;28;20102;-48
2021/12/15 07:30:35;;;;;;;46.90;20.80;;;9.70;99.90;;;;;;5064531;28;20041;-47
2021/12/15 07:33:02;;;;;;;43.88;21.15;;;9.80;99.90;;;;;;5060053;28;20032;-48
2021/12/15 07:35:29;;;;;;;50.90;20.93;;;9.70;99.90;;;;;;5049212;28;20073;-51
2021/12/15 07:37:55;;;;;;;46.90;20.83;;;9.70;99.90;;;;;;5064884;28;20275;-51
2021/12/15 07:40:24;;;;;;;42.37;20.20;;;9.70;99.90;;;;;;5048795;28;20048;-50
2021/12/15 07:43:07;;;;;;;50.85;20.63;;;9.70;99.90;;;;;;5050874;28;20554;-51
2021/12/15 07:45:37;;;;;;;46.45;18.85;;;9.80;99.90;;;;;;5050269;28;20029;-51
2021/12/15 07:48:06;;;;;;;45.08;19.38;;;9.70;99.90;;;;;;5050104;28;20446;-49
2021/12/15 07:50:33;;;;;;;44.30;19.38;;;9.70;99.90;;;;;;5050031;28;20056;-49
2021/12/15 07:52:59;;;;;;;42.50;19.52;;;9.80;99.90;;;;;;5049986;28;20041;-47
2021/12/15 07:55:27;;;;;;;38.55;18.55;;;9.80;99.90;;;;;;5083284;28;20052;-48
2021/12/15 07:57:53;;;;;;;45.05;19.77;;;9.80;99.90;;;;;;5050163;28;20045;-47
2021/12/15 08:00:20;;;;;;;42.78;18.38;;;9.70;99.90;;;;;;5051112;28;20037;-52
2021/12/15 08:02:46;;;;;;;47.92;19.30;;;9.80;99.90;;;;;;5067086;28;20148;-52
2021/12/15 08:05:13;;;;;;;40.47;18.08;;;9.80;99.90;;;;;;5060094;28;20068;-50
2021/12/15 08:07:39;;;;;;;43.80;18.90;;;9.80;99.90;;;;;;5051563;28;20045;-48
2021/12/15 08:10:09;;;;;;;41.50;18.30;;;9.80;99.90;;;;;;5050738;28;20079;-48
2021/12/15 08:12:37;;;;;;;41.58;18.45;;;9.80;99.90;;;;;;5032999;28;20051;-48
2021/12/15 08:15:06;;;;;;;32.35;18.35;;;9.80;99.90;;;;;;5057170;28;20048;-49
2021/12/15 08:17:32;;;;;;;40.30;18.13;;;9.80;99.90;;;;;;5083402;28;20053;-51
2021/12/15 08:19:58;;;;;;;35.45;17.00;;;9.80;99.90;;;;;;5032685;28;20048;-51
2021/12/15 08:22:24;;;;;;;35.20;17.30;;;9.80;99.90;;;;;;5049488;28;20040;-48
2021/12/15 08:24:51;;;;;;;31.50;15.93;;;9.90;99.90;;;;;;5032528;28;20052;-48
2021/12/15 08:27:17;;;;;;;37.03;15.98;;;9.80;99.90;;;;;;5049258;28;20056;-50
2021/12/15 08:29:43;;;;;;;30.55;15.38;;;9.80;99.90;;;;;;5050501;28;20177;-50
2021/12/15 08:32:08;;;;;;;31.13;13.88;;;9.80;99.90;;;;;;5048985;28;20376;-47
2021/12/15 08:34:35;;;;;;;26.35;13.15;;;9.80;99.90;;;;;;5061900;28;20048;-48
2021/12/15 08:37:02;;;;;;;32.53;13.88;;;9.80;99.90;;;;;;5033476;28;20040;-48
2021/12/15 08:39:28;;;;;;;26.45;13.18;;;9.80;99.90;;;;;;5048902;28;20052;-50
2021/12/15 08:41:54;;;;;;;24.00;12.07;;;9.70;99.90;;;;;;5045690;28;20037;-47
2021/12/15 08:44:20;;;;;;;25.92;12.63;;;9.70;99.90;;;;;;5032603;28;20176;-49
2021/12/15 08:46:47;;;;;;;27.52;12.57;;;9.70;99.90;;;;;;5050332;28;20390;-48
2021/12/15 08:49:16;;;;;;;;;;;9.70;99.90;;;;;;5062103;28;20048;-49
2021/12/15 08:51:45;;;;;;;29.58;11.43;;;9.70;99.90;;;;;;5055382;28;19916;-48
2021/12/15 08:54:14;;;;;;;21.65;11.75;;;9.70;99.90;;;;;;5050892;28;20049;-49
2021/12/15 08:56:43;;;;;;;31.00;13.05;;;9.70;99.90;;;;;;5072701;28;20072;-48
2021/12/15 08:59:10;;;;;;;31.77;12.93;;;9.70;99.90;;;;;;5057133;28;20305;-48
2021/12/15 09:01:38;;;;;;;31.63;14.55;;;9.70;99.90;;;;;;5048875;28;20119;-49
2021/12/15 09:04:05;;;;;;;26.52;12.40;;;9.70;99.90;;;;;;5031753;28;20460;-48
2021/12/15 09:06:32;;;;;;;26.35;13.02;;;9.70;99.90;;;;;;5053517;28;20037;-48
2021/12/15 09:08:58;;;;;;;31.30;14.15;;;9.80;99.90;;;;;;5062105;28;20040;-48
2021/12/15 09:11:27;;;;;;;25.35;13.02;;;9.80;99.90;;;;;;5031984;28;20059;-48
2021/12/15 09:13:55;;;;;;;25.65;13.23;;;9.90;99.90;;;;;;5049881;28;20450;-49
2021/12/15 09:16:23;;;;;;;26.80;13.25;;;9.90;99.90;;;;;;5071798;28;20075;-48
2021/12/15 09:18:51;;;;;;;30.05;13.73;;;10.00;99.90;;;;;;5049827;28;20120;-49
2021/12/15 09:21:19;;;;;;;27.25;13.93;;;10.00;99.90;;;;;;5050479;28;20037;-47
2021/12/15 09:23:47;;;;;;;26.40;12.75;;;10.10;99.90;;;;;;5045031;28;20053;-49
2021/12/15 09:26:13;;;;;;;28.00;13.02;;;;;;;;;;5049844;28;20452;-49
2021/12/15 09:28:39;;;;;;;26.02;13.10;;;;;;;;;;5049852;28;20467;-48
2021/12/15 09:31:06;;;;;;;27.25;13.32;;;;;;;;;;5049659;28;20041;-49
2021/12/15 09:33:33;;;;;;;27.10;13.57;;;10.30;99.90;;;;;;5055049;28;20368;-49
2021/12/15 09:36:01;;;;;;;30.05;13.10;;;10.30;99.90;;;;;;5056840;28;20041;-49
2021/12/15 09:38:27;;;;;;;24.20;12.07;;;10.30;99.90;;;;;;5048578;28;20086;-48
2021/12/15 09:40:58;;;;;;;22.92;11.77;;;10.40;99.90;;;;;;5040677;28;20045;-48
2021/12/15 09:43:27;;;;;;;27.27;12.70;;;;;;;;;;5049869;28;20041;-48
2021/12/15 09:46:10;;;;;;;26.17;11.25;;;10.40;99.90;;;;;;5049666;28;20117;-48
2021/12/15 09:57:06;;;;;;;21.20;11.50;;;10.60;99.90;;;;;;5081355;28;20053;-48
2021/12/15 10:02:31;;;;;;;19.77;11.70;;;10.60;99.90;;;;;;5068081;28;20420;-48
2021/12/15 10:18:49;;;;;;;14.85;8.32;;;10.50;99.90;;;;;;5051583;28;20044;-49
2021/12/15 10:21:29;;;;;;;15.45;8.43;;;10.50;99.90;;;;;;5015833;28;20094;-48
2021/12/15 10:23:57;;;;;;;15.65;8.35;;;10.50;99.90;;;;;;5049240;28;20103;-48
2021/12/15 10:26:24;;;;;;;20.20;9.00;;;10.50;99.90;;;;;;5051361;28;20041;-47
2021/12/15 10:28:52;;;;;;;13.52;8.15;;;10.50;99.90;;;;;;5034933;28;20098;-51
2021/12/15 10:31:23;;;;;;;16.27;8.65;;;10.50;99.90;;;;;;5053384;28;20444;-48
2021/12/15 10:33:53;;;;;;;19.80;9.35;;;10.50;99.90;;;;;;5052239;28;20388;-48
2021/12/15 10:36:27;;;;;;;16.55;9.18;;;10.50;99.90;;;;;;5064236;28;20032;-50
2021/12/15 10:38:58;;;;;;;18.50;8.68;;;10.50;99.90;;;;;;5051235;28;20052;-51
2021/12/15 10:41:36;;;;;;;17.63;8.88;;;10.50;99.90;;;;;;5051562;28;20128;-48
2021/12/15 10:44:09;;;;;;;21.35;8.93;;;10.50;99.90;;;;;;5051102;28;20092;-48
2021/12/15 10:46:39;;;;;;;18.30;9.05;;;10.50;99.90;;;;;;5051650;28;20391;-52
2021/12/15 10:49:14;;;;;;;15.80;9.07;;;10.50;99.90;;;;;;5052569;28;20447;-49
2021/12/15 10:51:47;;;;;;;18.23;8.98;;;10.50;99.90;;;;;;5034693;28;20048;-50
2021/12/15 10:54:35;;;;;;;18.27;8.98;;;10.50;99.90;;;;;;5051264;28;20140;-53
2021/12/15 10:57:07;;;;;;;21.25;10.43;;;10.50;99.90;;;;;;5052235;28;20056;-50
2021/12/15 10:59:36;;;;;;;22.67;10.15;;;10.50;99.90;;;;;;5052162;28;20041;-48
2021/12/15 11:02:07;;;;;;;16.30;8.70;;;10.50;99.90;;;;;;5050813;28;20045;-48
2021/12/15 11:04:43;;;;;;;17.95;9.60;;;10.60;99.90;;;;;;5052305;28;20109;-49
2021/12/15 11:07:23;;;;;;;20.02;9.13;;;10.60;99.90;;;;;;5053557;28;20056;-50
2021/12/15 11:09:54;;;;;;;25.45;9.75;;;10.60;99.90;;;;;;5084355;28;20525;-49
2021/12/15 11:12:37;;;;;;;19.05;10.10;;;10.60;99.90;;;;;;5052002;28;20045;-48
2021/12/15 11:15:27;;;;;;;17.60;9.65;;;10.60;99.90;;;;;;5060753;28;20033;-52
2021/12/15 11:18:00;;;;;;;18.63;9.02;;;10.60;99.90;;;;;;5067243;28;20049;-52
2021/12/15 11:20:33;;;;;;;18.42;9.13;;;10.60;99.90;;;;;;5034202;28;20129;-49
2021/12/15 11:23:04;;;;;;;17.35;9.30;;;10.70;99.90;;;;;;5033806;28;20052;-49
2021/12/15 11:25:38;;;;;;;16.45;9.02;;;10.70;99.90;;;;;;5050182;28;20049;-49
2021/12/15 11:28:12;;;;;;;14.98;7.50;;;10.80;99.90;;;;;;5050340;28;20072;-50
2021/12/15 11:30:43;;;;;;;17.75;8.23;;;10.80;99.90;;;;;;5051509;28;20115;-50
2021/12/15 11:33:23;;;;;;;14.63;8.07;;;10.80;99.90;;;;;;5051639;28;20077;-49
2021/12/15 11:36:09;;;;;;;16.55;7.43;;;10.80;99.90;;;;;;5083942;28;20055;-49
2021/12/15 11:38:42;;;;;;;17.88;8.45;;;10.80;99.90;;;;;;5050399;28;20116;-49
2021/12/15 11:41:11;;;;;;;13.48;7.55;;;10.80;99.90;;;;;;5049647;28;20055;-52
2021/12/15 11:43:53;;;;;;;21.45;8.50;;;10.90;99.90;;;;;;5051116;28;20048;-51
2021/12/15 11:46:36;;;;;;;14.80;8.02;;;10.80;99.90;;;;;;5051197;28;20049;-48
2021/12/15 11:49:06;;;;;;;13.63;7.38;;;10.80;99.90;;;;;;5051436;28;20044;-50
2021/12/15 11:51:39;;;;;;;16.77;7.22;;;10.90;99.90;;;;;;5051076;28;20174;-51
2021/12/15 11:54:12;;;;;;;14.20;6.93;;;10.90;99.90;;;;;;5050973;28;20428;-48
2021/12/15 11:56:38;;;;;;;15.32;7.28;;;10.80;99.90;;;;;;5050838;28;20620;-48
2021/12/15 11:59:22;;;;;;;13.95;6.93;;;10.80;99.90;;;;;;5063688;28;20286;-48
2021/12/15 12:02:06;;;;;;;15.10;6.20;;;10.80;99.90;;;;;;5071557;28;20052;-50
2021/12/15 12:04:44;;;;;;;12.77;7.05;;;10.80;99.90;;;;;;5050366;28;20404;-48
2021/12/15 12:07:13;;;;;;;12.60;5.72;;;10.80;99.90;;;;;;5035754;28;20041;-51
2021/12/15 12:09:40;;;;;;;9.35;4.70;;;10.80;99.90;;;;;;5049658;28;20041;-49
2021/12/15 12:12:07;;;;;;;11.35;5.00;;;10.70;99.90;;;;;;5050685;28;20045;-49
2021/12/15 12:17:12;;;;;;;11.90;4.60;;;10.80;99.90;;;;;;5054639;28;20287;-48
2021/12/15 12:19:44;;;;;;;11.48;4.57;;;10.70;99.90;;;;;;5050622;28;20047;-48
2021/12/15 12:22:12;;;;;;;11.60;4.53;;;10.70;99.90;;;;;;5050679;28;20131;-47
2021/12/15 12:24:39;;;;;;;8.30;4.05;;;10.70;99.90;;;;;;5049598;28;20099;-48
2021/12/15 12:27:06;;;;;;;10.13;3.45;;;10.60;99.90;;;;;;5049458;28;20439;-48
2021/12/15 12:29:32;;;;;;;;;;;10.60;99.90;;;;;;5049859;28;20052;-47
2021/12/15 12:31:58;;;;;;;8.23;3.60;;;10.50;99.90;;;;;;5050516;28;19994;-47
2021/12/15 12:34:24;;;;;;;14.65;3.85;;;10.60;99.90;;;;;;5050341;28;20079;-49
2021/12/15 12:36:52;;;;;;;10.63;3.70;;;10.50;99.90;;;;;;5050702;28;20032;-49
2021/12/15 12:39:21;;;;;;;9.10;3.80;;;10.50;99.90;;;;;;5050304;28;20479;-48
2021/12/15 12:41:49;;;;;;;7.78;3.42;;;10.50;99.90;;;;;;5049049;28;20087;-48
2021/12/15 12:44:23;;;;;;;9.82;3.55;;;10.40;99.90;;;;;;5032380;28;20052;-48
2021/12/15 12:47:03;;;;;;;11.80;3.50;;;10.40;99.90;;;;;;5052008;28;20403;-48
2021/12/15 13:01:03;;;;;;;6.68;2.60;;;10.20;99.90;;;;;;5067213;28;19920;-50
2021/12/15 13:03:41;;;;;;;6.82;2.08;;;10.20;99.90;;;;;;5068320;28;20049;-49
2021/12/15 13:06:11;;;;;;;7.22;2.35;;;10.20;99.90;;;;;;5069493;28;20045;-49
2021/12/15 13:08:45;;;;;;;5.75;2.20;;;10.20;99.90;;;;;;5058023;28;20053;-50
2021/12/15 13:11:22;;;;;;;5.55;1.67;;;10.10;99.90;;;;;;5054579;28;20045;-47
2021/12/15 13:14:08;;;;;;;6.47;1.80;;;10.00;99.90;;;;;;5056931;28;20045;-51
2021/12/15 13:16:54;;;;;;;8.07;2.05;;;9.90;99.90;;;;;;5048804;28;20419;-50
2021/12/15 13:19:29;;;;;;;8.02;2.00;;;9.90;99.90;;;;;;5048329;28;20495;-47
2021/12/15 13:30:56;;;;;;;6.03;1.60;;;9.70;99.90;;;;;;5057014;28;20097;-48
2021/12/15 13:33:32;;;;;;;5.47;1.95;;;9.70;99.90;;;;;;5061465;28;20040;-48
2021/12/15 13:36:24;;;;;;;3.10;1.73;;;9.70;99.90;;;;;;5065249;28;20493;-45
2021/12/15 13:39:02;;;;;;;5.93;1.98;;;9.60;99.90;;;;;;5057314;28;20084;-45
2021/12/15 13:44:11;;;;;;;7.15;1.80;;;9.50;99.90;;;;;;5081562;28;19928;-45
2021/12/15 13:46:41;;;;;;;5.47;2.20;;;9.50;99.90;;;;;;5067256;28;20037;-46
2021/12/15 13:49:31;;;;;;;6.20;1.63;;;9.50;99.90;;;;;;5069564;28;20052;-44
2021/12/15 13:52:08;;;;;;;6.85;2.15;;;9.50;99.90;;;;;;5070034;28;20040;-45
2021/12/15 13:54:34;;;;;;;6.47;1.77;;;9.40;99.90;;;;;;5065285;28;20360;-44
2021/12/15 13:57:13;;;;;;;6.15;1.70;;;9.40;99.90;;;;;;5059749;28;20494;-43
2021/12/15 13:59:44;;;;;;;3.55;1.35;;;9.40;99.90;;;;;;5063566;28;20037;-44
2021/12/15 14:02:14;;;;;;;7.45;1.80;;;9.40;99.90;;;;;;5063712;28;20040;-44
2021/12/15 14:04:45;;;;;;;5.30;1.88;;;9.30;99.90;;;;;;5064725;28;20049;-43
2021/12/15 14:07:44;;;;;;;4.57;1.50;;;9.30;99.90;;;;;;5067360;28;20056;-46
2021/12/15 14:10:10;;;;;;;4.30;1.60;;;9.30;99.90;;;;;;5102308;28;20139;-45
2021/12/15 14:12:45;;;;;;;3.88;1.88;;;9.30;99.90;;;;;;5067057;28;20136;-43
2021/12/15 14:15:12;;;;;;;3.55;1.52;;;9.20;99.90;;;;;;5057381;28;20048;-43
2021/12/15 14:17:38;;;;;;;5.38;1.45;;;9.20;99.90;;;;;;5051981;28;20380;-44
2021/12/15 14:20:16;;;;;;;4.80;1.23;;;9.20;99.90;;;;;;5053317;28;20053;-47
2021/12/15 14:22:43;;;;;;;5.77;1.67;;;9.20;99.90;;;;;;5061044;28;20121;-46
2021/12/15 14:25:10;;;;;;;4.97;1.67;;;9.10;99.90;;;;;;5050689;28;20290;-44
2021/12/15 14:27:36;;;;;;;4.80;1.40;;;9.10;99.90;;;;;;5052281;28;20367;-44
2021/12/15 14:30:12;;;;;;;5.55;1.73;;;9.10;99.90;;;;;;5051812;28;20503;-43